Monza Express — ZDJO7 — position and weather

sailwx.info

Track history (hours):
 
Tides and Currents Weather Stations Pressure Air Temp Water Temp Dewpoint Dewpoint Depression Visibility Wind Speed Wind Dir Waves Ship Positions

Monza Express

Last reported at 2018-Aug-16 07:28 UTC. Time now 2018-Aug-16 08:01 UTC.
Position N 41°20' E 002°09'.

Length 168 m; draft 8.2 m.

Type: Cargo ship. MMSI: 236111618.

Date/timePositionNaut miles runAvg speedWind from/ knotsBaromVisibWave heightAir tempDewpointWater temp
2018-Aug-16 07:28N 41°20' E 002°09'0 0.0
2018-Aug-16 06:58N 41°20' E 002°09'0 0.0
2018-Aug-16 06:28N 41°20' E 002°09'0 0.0
2018-Aug-16 05:58N 41°20' E 002°09'0 0.0
2018-Aug-16 05:25N 41°20' E 002°09'0 0.0
2018-Aug-16 04:58N 41°20' E 002°09'0 0.0
2018-Aug-16 04:28N 41°20' E 002°09'0 0.0
2018-Aug-16 03:58N 41°20' E 002°09'0 0.0
2018-Aug-16 03:28N 41°20' E 002°09'0 0.0
2018-Aug-16 02:55N 41°20' E 002°09'0 0.0
2018-Aug-16 02:28N 41°20' E 002°09'1 2.1
2018-Aug-16 02:00N 41°20' E 002°10'4 8.0
2018-Aug-16 01:30N 41°17' E 002°12'3 6.0
2018-Aug-16 01:00N 41°16' E 002°16'1 1.5
2018-Aug-16 00:29N 41°16' E 002°17'4 9.1
2018-Aug-16 00:00N 41°17' E 002°23'5 9.1
2018-Aug-15 23:29N 41°17' E 002°29'0 0.5
2018-Aug-15 22:59N 41°17' E 002°29'1 0.5
2018-Aug-15 19:53N 41°17' E 002°31'0 0.4
2018-Aug-15 19:29N 41°17' E 002°31'0 0.3
2018-Aug-15 18:58N 41°17' E 002°32'0 0.3
2018-Aug-15 18:28N 41°17' E 002°32'0 0.3
2018-Aug-15 17:58N 41°16' E 002°32'0 0.4
2018-Aug-15 17:26N 41°16' E 002°32'0 0.4
2018-Aug-15 17:00N 41°16' E 002°32'0 0.5
2018-Aug-15 16:30N 41°16' E 002°33'0 0.2
2018-Aug-15 14:14N 41°16' E 002°33'2 6.9
2018-Aug-15 13:57N 41°16' E 002°30'511.2
2018-Aug-15 13:30N 41°15' E 002°23'0 0.6
2018-Aug-15 12:59N 41°15' E 002°23'1 1.1
2018-Aug-15 12:30N 41°14' E 002°24'0 1.0
2018-Aug-15 12:00N 41°14' E 002°25'1 0.9
2018-Aug-15 11:19N 41°14' E 002°25'0 0.8
2018-Aug-15 11:00N 41°14' E 002°26'0 0.8
2018-Aug-15 10:30N 41°14' E 002°26'0 0.8
2018-Aug-15 09:57N 41°14' E 002°27'0 0.7
2018-Aug-15 09:28N 41°14' E 002°27'0 0.7
2018-Aug-15 09:00N 41°15' E 002°28'0 0.7
2018-Aug-15 08:30N 41°15' E 002°28'0 0.8
2018-Aug-15 08:00N 41°15' E 002°29'0 0.9
2018-Aug-15 07:29N 41°15' E 002°29'0 0.8
2018-Aug-15 07:00N 41°15' E 002°30'1 0.6
2018-Aug-15 05:56N 41°15' E 002°30'0 0.5
2018-Aug-15 05:30N 41°15' E 002°31'0 0.4
2018-Aug-15 04:59N 41°15' E 002°31'0 0.3
2018-Aug-15 04:15N 41°15' E 002°31'0 0.2
2018-Aug-15 02:56N 41°15' E 002°32'1 0.2
2018-Aug-14 23:55N 41°16' E 002°33'6 8.6
2018-Aug-14 23:14N 41°19' E 002°39'314.9
2018-Aug-14 23:00N 41°22' E 002°42'12513.9
2018-Aug-14 14:03N 43°16' E 003°48'114.8
2018-Aug-14 13:57N 43°17' E 003°49'613.4
2018-Aug-14 13:30N 43°23' E 003°45'2 4.4
2018-Aug-14 12:59N 43°24' E 003°43'0 0.1
2018-Aug-14 12:29N 43°24' E 003°43'0 0.0
2018-Aug-14 11:59N 43°24' E 003°43'0 0.0
2018-Aug-14 11:23N 43°24' E 003°43'0 0.0
2018-Aug-14 10:35N 43°24' E 003°43'0 0.0
2018-Aug-14 10:29N 43°24' E 003°43'0 0.0
2018-Aug-14 09:59N 43°24' E 003°43'0 0.0
2018-Aug-14 09:20N 43°24' E 003°43'0 0.0
2018-Aug-14 08:59N 43°24' E 003°43'0 0.0
2018-Aug-14 08:29N 43°24' E 003°43'0 0.0
2018-Aug-14 07:59N 43°24' E 003°43'0 0.0
2018-Aug-14 07:29N 43°24' E 003°43'0 0.0
2018-Aug-14 06:59N 43°24' E 003°43'0 0.0
2018-Aug-14 06:29N 43°24' E 003°43'0 0.0
2018-Aug-14 05:59N 43°24' E 003°43'0 0.0
2018-Aug-14 05:29N 43°24' E 003°43'0 0.0
2018-Aug-14 04:59N 43°24' E 003°43'0 0.3
2018-Aug-14 04:28N 43°24' E 003°43'3 6.4
2018-Aug-14 04:00N 43°23' E 003°46'4 8.1
2018-Aug-14 03:29N 43°20' E 003°50'611.7
2018-Aug-14 03:00N 43°16' E 003°56'612.7
2018-Aug-14 02:30N 43°12' E 004°03'1 0.3
2018-Aug-13 22:26N 43°11' E 004°02'3 6.4
2018-Aug-13 22:00N 43°11' E 004°06'3314.5
2018-Aug-13 19:46N 43°11' E 004°51'415.1
2018-Aug-13 19:28N 43°11' E 004°57'510.8
2018-Aug-13 19:00N 43°16' E 004°60'714.0
2018-Aug-13 18:30N 43°23' E 004°57'4 8.9
2018-Aug-13 18:00N 43°24' E 004°51'0 0.1
2018-Aug-13 11:48N 43°24' E 004°51'0 0.0
2018-Aug-13 11:24N 43°24' E 004°51'0 0.0
2018-Aug-13 10:54N 43°24' E 004°51'1 3.2
2018-Aug-13 10:30N 43°24' E 004°52'611.4
2018-Aug-13 09:59N 43°20' E 004°59'510.3
2018-Aug-13 09:30N 43°16' E 005°01'6810.6
2018-Aug-13 03:09N 42°36' E 006°16'215.7
2018-Aug-13 03:00N 42°35' E 006°18'4816.3
2018-Aug-13 00:03N 42°09' E 007°13'116.2
2018-Aug-13 00:00N 42°08' E 007°14'816.2
2018-Aug-12 23:30N 42°04' E 007°23'816.5
2018-Aug-12 23:00N 41°59' E 007°32'816.5
2018-Aug-12 22:30N 41°55' E 007°42'816.5
2018-Aug-12 22:00N 41°51' E 007°51'816.6
2018-Aug-12 21:30N 41°46' E 008°01'816.5
2018-Aug-12 21:00N 41°42' E 008°10'816.4
2018-Aug-12 20:30N 41°37' E 008°19'816.4
2018-Aug-12 20:00N 41°33' E 008°28'18316.2
2018-Aug-12 08:39N 40°17' E 012°09'316.9
2018-Aug-12 08:30N 40°16' E 012°12'817.0
2018-Aug-12 08:00N 40°11' E 012°22'816.9
2018-Aug-12 07:30N 40°07' E 012°31'916.9
2018-Aug-12 06:59N 40°03' E 012°42'817.0
2018-Aug-12 06:29N 39°59' E 012°51'2617.0
2018-Aug-12 04:56N 39°46' E 013°21'716.8
2018-Aug-12 04:30N 39°43' E 013°29'816.7
2018-Aug-12 04:00N 39°39' E 013°39'816.6
2018-Aug-12 03:30N 39°35' E 013°48'1516.9
2018-Aug-12 02:35N 39°27' E 014°06'217.0
2018-Aug-12 02:29N 39°26' E 014°08'817.0
2018-Aug-12 02:00N 39°23' E 014°18'2317.1
2018-Aug-12 00:38N 39°11' E 014°44'217.1
2018-Aug-12 00:30N 39°10' E 014°46'5015.8
2018-Aug-11 21:21N 38°36' E 015°33'816.8
2018-Aug-11 20:53N 38°29' E 015°36'616.3
2018-Aug-11 20:30N 38°23' E 015°40'813.1
2018-Aug-11 19:54N 38°15' E 015°41'512.1
2018-Aug-11 19:30N 38°12' E 015°37'815.9
2018-Aug-11 19:00N 38°04' E 015°36'915.5
2018-Aug-11 18:26N 37°55' E 015°37'615.4
2018-Aug-11 18:01N 37°50' E 015°43'916.9
2018-Aug-11 17:30N 37°47' E 015°53'917.5
2018-Aug-11 17:00N 37°45' E 016°04'38015.2
2018-Aug-10 15:58N 37°28' E 024°03'1917.3
2018-Aug-10 14:51N 37°44' E 024°16'  
2018-Aug-08 01:11N 43°41' E 028°50'317.2
2018-Aug-08 01:00N 43°44' E 028°50'917.5
2018-Aug-08 00:30N 43°52' E 028°49'816.5
2018-Aug-08 00:01N 44°00' E 028°47'713.4
2018-Aug-07 23:30N 44°06' E 028°42'2 3.3
2018-Aug-07 23:00N 44°06' E 028°40'0 0.0
2018-Aug-07 22:30N 44°06' E 028°40'0 0.0
2018-Aug-07 22:00N 44°06' E 028°40'0 0.0
2018-Aug-07 21:30N 44°06' E 028°40'0 0.0
2018-Aug-07 21:00N 44°06' E 028°40'0 0.0
2018-Aug-07 20:30N 44°06' E 028°40'0 0.0
2018-Aug-07 20:00N 44°06' E 028°40'0 0.0
2018-Aug-07 19:30N 44°06' E 028°40'0 0.0
2018-Aug-07 19:00N 44°06' E 028°40'0 0.0
2018-Aug-07 18:30N 44°06' E 028°40'0 0.0
2018-Aug-07 18:00N 44°06' E 028°40'0 0.0
2018-Aug-07 17:30N 44°06' E 028°40'0 0.0
2018-Aug-07 17:00N 44°06' E 028°40'0 0.0
2018-Aug-07 16:30N 44°06' E 028°40'0 0.0
2018-Aug-07 16:00N 44°06' E 028°40'0 0.0
2018-Aug-07 15:30N 44°06' E 028°40'0 0.0
2018-Aug-07 15:00N 44°06' E 028°40'0 0.0
2018-Aug-07 14:30N 44°06' E 028°40'0 0.0
2018-Aug-07 13:57N 44°06' E 028°40'0 0.0
2018-Aug-07 13:30N 44°06' E 028°40'0 0.0
2018-Aug-07 13:00N 44°06' E 028°40'0 0.0
2018-Aug-07 12:30N 44°06' E 028°40'0 0.0
2018-Aug-07 12:00N 44°06' E 028°40'0 0.0
2018-Aug-07 11:30N 44°06' E 028°40'0 0.0
2018-Aug-07 11:00N 44°06' E 028°40'0 0.0
2018-Aug-07 10:30N 44°06' E 028°40'0 0.0
2018-Aug-07 10:00N 44°06' E 028°40'0 0.0
2018-Aug-07 09:27N 44°06' E 028°40'0 0.0
2018-Aug-07 09:00N 44°06' E 028°40'0 0.0
2018-Aug-07 08:30N 44°06' E 028°40'0 0.0
2018-Aug-07 08:00N 44°06' E 028°40'0 0.0
2018-Aug-07 07:30N 44°06' E 028°40'0 0.0
2018-Aug-07 07:00N 44°06' E 028°40'0 0.0
2018-Aug-07 06:30N 44°06' E 028°40'0 0.0
2018-Aug-07 06:00N 44°06' E 028°40'0 0.0
2018-Aug-07 05:30N 44°06' E 028°40'0 0.0
2018-Aug-07 05:00N 44°06' E 028°40'0 0.0
2018-Aug-07 04:30N 44°06' E 028°40'0 0.0
2018-Aug-07 04:00N 44°06' E 028°40'0 0.0
2018-Aug-07 03:30N 44°06' E 028°40'0 0.0
2018-Aug-07 03:00N 44°06' E 028°40'0 0.0
2018-Aug-07 02:30N 44°06' E 028°40'0 0.0
2018-Aug-07 02:00N 44°06' E 028°40'0 0.0
2018-Aug-07 01:30N 44°06' E 028°40'0 0.0
2018-Aug-07 01:00N 44°06' E 028°40'0 0.0
2018-Aug-07 00:24N 44°06' E 028°40'0 0.0
2018-Aug-06 23:57N 44°06' E 028°40'0 0.0
2018-Aug-06 23:30N 44°06' E 028°40'0 0.0
2018-Aug-06 23:00N 44°06' E 028°40'0 0.0
2018-Aug-06 22:30N 44°06' E 028°40'0 0.0
2018-Aug-06 22:00N 44°06' E 028°40'0 0.0
2018-Aug-06 21:30N 44°06' E 028°40'0 0.0
2018-Aug-06 21:00N 44°06' E 028°40'0 0.0
2018-Aug-06 20:30N 44°06' E 028°40'0 0.0
2018-Aug-06 20:00N 44°06' E 028°40'0 0.0
2018-Aug-06 19:30N 44°06' E 028°40'0 0.0
2018-Aug-06 19:00N 44°06' E 028°40'0 0.0
2018-Aug-06 18:30N 44°06' E 028°40'0 0.0
2018-Aug-06 18:00N 44°06' E 028°40'0 0.0
2018-Aug-06 17:30N 44°06' E 028°40'0 0.0
2018-Aug-06 17:00N 44°06' E 028°40'0 0.0
2018-Aug-06 16:30N 44°06' E 028°40'0 0.0
2018-Aug-06 16:00N 44°06' E 028°40'0 0.0
2018-Aug-06 15:30N 44°06' E 028°40'0 0.0
2018-Aug-06 15:00N 44°06' E 028°40'0 0.0
2018-Aug-06 14:27N 44°06' E 028°40'0 0.0
2018-Aug-06 14:00N 44°06' E 028°40'0 0.0
2018-Aug-06 13:30N 44°06' E 028°40'0 0.0
2018-Aug-06 13:00N 44°06' E 028°40'0 0.0
2018-Aug-06 12:30N 44°06' E 028°40'0 0.0
2018-Aug-06 12:00N 44°06' E 028°40'0 0.0
2018-Aug-06 11:30N 44°06' E 028°40'0 0.0
2018-Aug-06 11:00N 44°06' E 028°40'0 0.0
2018-Aug-06 10:30N 44°06' E 028°40'0 0.0
2018-Aug-06 10:00N 44°06' E 028°40'0 0.0
2018-Aug-06 09:30N 44°06' E 028°40'0 0.0
2018-Aug-06 08:57N 44°06' E 028°40'0 0.0
2018-Aug-06 08:30N 44°06' E 028°40'0 0.0
2018-Aug-06 08:00N 44°06' E 028°40'0 0.0
2018-Aug-06 07:30N 44°06' E 028°40'  
Track history (hours):
 
Tides and Currents Weather Stations Pressure Air Temp Water Temp Dewpoint Dewpoint Depression Visibility Wind Speed Wind Dir Waves Ship Positions

Monza Express

Last reported at 2018-Aug-16 07:28 UTC. Time now 2018-Aug-16 08:01 UTC.
Position N 41°20' E 002°09'.

Length 168 m; draft 8.2 m.

Type: Cargo ship. MMSI: 236111618.

Date/timePositionNaut miles runAvg speedWind from/ knotsBaromVisibWave heightAir tempDewpointWater temp
2018-Aug-16 07:28N 41°20' E 002°09'0 0.0
2018-Aug-16 06:58N 41°20' E 002°09'0 0.0
2018-Aug-16 06:28N 41°20' E 002°09'0 0.0
2018-Aug-16 05:58N 41°20' E 002°09'0 0.0
2018-Aug-16 05:25N 41°20' E 002°09'0 0.0
2018-Aug-16 04:58N 41°20' E 002°09'0 0.0
2018-Aug-16 04:28N 41°20' E 002°09'0 0.0
2018-Aug-16 03:58N 41°20' E 002°09'0 0.0
2018-Aug-16 03:28N 41°20' E 002°09'0 0.0
2018-Aug-16 02:55N 41°20' E 002°09'0 0.0
2018-Aug-16 02:28N 41°20' E 002°09'1 2.1
2018-Aug-16 02:00N 41°20' E 002°10'4 8.0
2018-Aug-16 01:30N 41°17' E 002°12'3 6.0
2018-Aug-16 01:00N 41°16' E 002°16'1 1.5
2018-Aug-16 00:29N 41°16' E 002°17'4 9.1
2018-Aug-16 00:00N 41°17' E 002°23'5 9.1
2018-Aug-15 23:29N 41°17' E 002°29'0 0.5
2018-Aug-15 22:59N 41°17' E 002°29'1 0.5
2018-Aug-15 19:53N 41°17' E 002°31'0 0.4
2018-Aug-15 19:29N 41°17' E 002°31'0 0.3
2018-Aug-15 18:58N 41°17' E 002°32'0 0.3
2018-Aug-15 18:28N 41°17' E 002°32'0 0.3
2018-Aug-15 17:58N 41°16' E 002°32'0 0.4
2018-Aug-15 17:26N 41°16' E 002°32'0 0.4
2018-Aug-15 17:00N 41°16' E 002°32'0 0.5
2018-Aug-15 16:30N 41°16' E 002°33'0 0.2
2018-Aug-15 14:14N 41°16' E 002°33'2 6.9
2018-Aug-15 13:57N 41°16' E 002°30'511.2
2018-Aug-15 13:30N 41°15' E 002°23'0 0.6
2018-Aug-15 12:59N 41°15' E 002°23'1 1.1
2018-Aug-15 12:30N 41°14' E 002°24'0 1.0
2018-Aug-15 12:00N 41°14' E 002°25'1 0.9
2018-Aug-15 11:19N 41°14' E 002°25'0 0.8
2018-Aug-15 11:00N 41°14' E 002°26'0 0.8
2018-Aug-15 10:30N 41°14' E 002°26'0 0.8
2018-Aug-15 09:57N 41°14' E 002°27'0 0.7
2018-Aug-15 09:28N 41°14' E 002°27'0 0.7
2018-Aug-15 09:00N 41°15' E 002°28'0 0.7
2018-Aug-15 08:30N 41°15' E 002°28'0 0.8
2018-Aug-15 08:00N 41°15' E 002°29'0 0.9
2018-Aug-15 07:29N 41°15' E 002°29'0 0.8
2018-Aug-15 07:00N 41°15' E 002°30'1 0.6
2018-Aug-15 05:56N 41°15' E 002°30'0 0.5
2018-Aug-15 05:30N 41°15' E 002°31'0 0.4
2018-Aug-15 04:59N 41°15' E 002°31'0 0.3
2018-Aug-15 04:15N 41°15' E 002°31'0 0.2
2018-Aug-15 02:56N 41°15' E 002°32'1 0.2
2018-Aug-14 23:55N 41°16' E 002°33'6 8.6
2018-Aug-14 23:14N 41°19' E 002°39'314.9
2018-Aug-14 23:00N 41°22' E 002°42'12513.9
2018-Aug-14 14:03N 43°16' E 003°48'114.8
2018-Aug-14 13:57N 43°17' E 003°49'613.4
2018-Aug-14 13:30N 43°23' E 003°45'2 4.4
2018-Aug-14 12:59N 43°24' E 003°43'0 0.1
2018-Aug-14 12:29N 43°24' E 003°43'0 0.0
2018-Aug-14 11:59N 43°24' E 003°43'0 0.0
2018-Aug-14 11:23N 43°24' E 003°43'0 0.0
2018-Aug-14 10:35N 43°24' E 003°43'0 0.0
2018-Aug-14 10:29N 43°24' E 003°43'0 0.0
2018-Aug-14 09:59N 43°24' E 003°43'0 0.0
2018-Aug-14 09:20N 43°24' E 003°43'0 0.0
2018-Aug-14 08:59N 43°24' E 003°43'0 0.0
2018-Aug-14 08:29N 43°24' E 003°43'0 0.0
2018-Aug-14 07:59N 43°24' E 003°43'0 0.0
2018-Aug-14 07:29N 43°24' E 003°43'0 0.0
2018-Aug-14 06:59N 43°24' E 003°43'0 0.0
2018-Aug-14 06:29N 43°24' E 003°43'0 0.0
2018-Aug-14 05:59N 43°24' E 003°43'0 0.0
2018-Aug-14 05:29N 43°24' E 003°43'0 0.0
2018-Aug-14 04:59N 43°24' E 003°43'0 0.3
2018-Aug-14 04:28N 43°24' E 003°43'3 6.4
2018-Aug-14 04:00N 43°23' E 003°46'4 8.1
2018-Aug-14 03:29N 43°20' E 003°50'611.7
2018-Aug-14 03:00N 43°16' E 003°56'612.7
2018-Aug-14 02:30N 43°12' E 004°03'1 0.3
2018-Aug-13 22:26N 43°11' E 004°02'3 6.4
2018-Aug-13 22:00N 43°11' E 004°06'3314.5
2018-Aug-13 19:46N 43°11' E 004°51'415.1
2018-Aug-13 19:28N 43°11' E 004°57'510.8
2018-Aug-13 19:00N 43°16' E 004°60'714.0
2018-Aug-13 18:30N 43°23' E 004°57'4 8.9
2018-Aug-13 18:00N 43°24' E 004°51'0 0.1
2018-Aug-13 11:48N 43°24' E 004°51'0 0.0
2018-Aug-13 11:24N 43°24' E 004°51'0 0.0
2018-Aug-13 10:54N 43°24' E 004°51'1 3.2
2018-Aug-13 10:30N 43°24' E 004°52'611.4
2018-Aug-13 09:59N 43°20' E 004°59'510.3
2018-Aug-13 09:30N 43°16' E 005°01'6810.6
2018-Aug-13 03:09N 42°36' E 006°16'215.7
2018-Aug-13 03:00N 42°35' E 006°18'4816.3
2018-Aug-13 00:03N 42°09' E 007°13'116.2
2018-Aug-13 00:00N 42°08' E 007°14'816.2
2018-Aug-12 23:30N 42°04' E 007°23'816.5
2018-Aug-12 23:00N 41°59' E 007°32'816.5
2018-Aug-12 22:30N 41°55' E 007°42'816.5
2018-Aug-12 22:00N 41°51' E 007°51'816.6
2018-Aug-12 21:30N 41°46' E 008°01'816.5
2018-Aug-12 21:00N 41°42' E 008°10'816.4
2018-Aug-12 20:30N 41°37' E 008°19'816.4
2018-Aug-12 20:00N 41°33' E 008°28'18316.2
2018-Aug-12 08:39N 40°17' E 012°09'316.9
2018-Aug-12 08:30N 40°16' E 012°12'817.0
2018-Aug-12 08:00N 40°11' E 012°22'816.9
2018-Aug-12 07:30N 40°07' E 012°31'916.9
2018-Aug-12 06:59N 40°03' E 012°42'817.0
2018-Aug-12 06:29N 39°59' E 012°51'2617.0
2018-Aug-12 04:56N 39°46' E 013°21'716.8
2018-Aug-12 04:30N 39°43' E 013°29'816.7
2018-Aug-12 04:00N 39°39' E 013°39'816.6
2018-Aug-12 03:30N 39°35' E 013°48'1516.9
2018-Aug-12 02:35N 39°27' E 014°06'217.0
2018-Aug-12 02:29N 39°26' E 014°08'817.0
2018-Aug-12 02:00N 39°23' E 014°18'2317.1
2018-Aug-12 00:38N 39°11' E 014°44'217.1
2018-Aug-12 00:30N 39°10' E 014°46'5015.8
2018-Aug-11 21:21N 38°36' E 015°33'816.8
2018-Aug-11 20:53N 38°29' E 015°36'616.3
2018-Aug-11 20:30N 38°23' E 015°40'813.1
2018-Aug-11 19:54N 38°15' E 015°41'512.1
2018-Aug-11 19:30N 38°12' E 015°37'815.9
2018-Aug-11 19:00N 38°04' E 015°36'915.5
2018-Aug-11 18:26N 37°55' E 015°37'615.4
2018-Aug-11 18:01N 37°50' E 015°43'916.9
2018-Aug-11 17:30N 37°47' E 015°53'917.5
2018-Aug-11 17:00N 37°45' E 016°04'38015.2
2018-Aug-10 15:58N 37°28' E 024°03'1917.3
2018-Aug-10 14:51N 37°44' E 024°16'  
2018-Aug-08 01:11N 43°41' E 028°50'317.2
2018-Aug-08 01:00N 43°44' E 028°50'917.5
2018-Aug-08 00:30N 43°52' E 028°49'816.5
2018-Aug-08 00:01N 44°00' E 028°47'713.4
2018-Aug-07 23:30N 44°06' E 028°42'2 3.3
2018-Aug-07 23:00N 44°06' E 028°40'0 0.0
2018-Aug-07 22:30N 44°06' E 028°40'0 0.0
2018-Aug-07 22:00N 44°06' E 028°40'0 0.0
2018-Aug-07 21:30N 44°06' E 028°40'0 0.0
2018-Aug-07 21:00N 44°06' E 028°40'0 0.0
2018-Aug-07 20:30N 44°06' E 028°40'0 0.0
2018-Aug-07 20:00N 44°06' E 028°40'0 0.0
2018-Aug-07 19:30N 44°06' E 028°40'0 0.0
2018-Aug-07 19:00N 44°06' E 028°40'0 0.0
2018-Aug-07 18:30N 44°06' E 028°40'0 0.0
2018-Aug-07 18:00N 44°06' E 028°40'0 0.0
2018-Aug-07 17:30N 44°06' E 028°40'0 0.0
2018-Aug-07 17:00N 44°06' E 028°40'0 0.0
2018-Aug-07 16:30N 44°06' E 028°40'0 0.0
2018-Aug-07 16:00N 44°06' E 028°40'0 0.0
2018-Aug-07 15:30N 44°06' E 028°40'0 0.0
2018-Aug-07 15:00N 44°06' E 028°40'0 0.0
2018-Aug-07 14:30N 44°06' E 028°40'0 0.0
2018-Aug-07 13:57N 44°06' E 028°40'0 0.0
2018-Aug-07 13:30N 44°06' E 028°40'0 0.0
2018-Aug-07 13:00N 44°06' E 028°40'0 0.0
2018-Aug-07 12:30N 44°06' E 028°40'0 0.0
2018-Aug-07 12:00N 44°06' E 028°40'0 0.0
2018-Aug-07 11:30N 44°06' E 028°40'0 0.0
2018-Aug-07 11:00N 44°06' E 028°40'0 0.0
2018-Aug-07 10:30N 44°06' E 028°40'0 0.0
2018-Aug-07 10:00N 44°06' E 028°40'0 0.0
2018-Aug-07 09:27N 44°06' E 028°40'0 0.0
2018-Aug-07 09:00N 44°06' E 028°40'0 0.0
2018-Aug-07 08:30N 44°06' E 028°40'0 0.0
2018-Aug-07 08:00N 44°06' E 028°40'0 0.0
2018-Aug-07 07:30N 44°06' E 028°40'0 0.0
2018-Aug-07 07:00N 44°06' E 028°40'0 0.0
2018-Aug-07 06:30N 44°06' E 028°40'0 0.0
2018-Aug-07 06:00N 44°06' E 028°40'0 0.0
2018-Aug-07 05:30N 44°06' E 028°40'0 0.0
2018-Aug-07 05:00N 44°06' E 028°40'0 0.0
2018-Aug-07 04:30N 44°06' E 028°40'0 0.0
2018-Aug-07 04:00N 44°06' E 028°40'0 0.0
2018-Aug-07 03:30N 44°06' E 028°40'0 0.0
2018-Aug-07 03:00N 44°06' E 028°40'0 0.0
2018-Aug-07 02:30N 44°06' E 028°40'0 0.0
2018-Aug-07 02:00N 44°06' E 028°40'0 0.0
2018-Aug-07 01:30N 44°06' E 028°40'0 0.0
2018-Aug-07 01:00N 44°06' E 028°40'0 0.0
2018-Aug-07 00:24N 44°06' E 028°40'0 0.0
2018-Aug-06 23:57N 44°06' E 028°40'0 0.0
2018-Aug-06 23:30N 44°06' E 028°40'0 0.0
2018-Aug-06 23:00N 44°06' E 028°40'0 0.0
2018-Aug-06 22:30N 44°06' E 028°40'0 0.0
2018-Aug-06 22:00N 44°06' E 028°40'0 0.0
2018-Aug-06 21:30N 44°06' E 028°40'0 0.0
2018-Aug-06 21:00N 44°06' E 028°40'0 0.0
2018-Aug-06 20:30N 44°06' E 028°40'0 0.0
2018-Aug-06 20:00N 44°06' E 028°40'0 0.0
2018-Aug-06 19:30N 44°06' E 028°40'0 0.0
2018-Aug-06 19:00N 44°06' E 028°40'0 0.0
2018-Aug-06 18:30N 44°06' E 028°40'0 0.0
2018-Aug-06 18:00N 44°06' E 028°40'0 0.0
2018-Aug-06 17:30N 44°06' E 028°40'0 0.0
2018-Aug-06 17:00N 44°06' E 028°40'0 0.0
2018-Aug-06 16:30N 44°06' E 028°40'0 0.0
2018-Aug-06 16:00N 44°06' E 028°40'0 0.0
2018-Aug-06 15:30N 44°06' E 028°40'0 0.0
2018-Aug-06 15:00N 44°06' E 028°40'0 0.0
2018-Aug-06 14:27N 44°06' E 028°40'0 0.0
2018-Aug-06 14:00N 44°06' E 028°40'0 0.0
2018-Aug-06 13:30N 44°06' E 028°40'0 0.0
2018-Aug-06 13:00N 44°06' E 028°40'0 0.0
2018-Aug-06 12:30N 44°06' E 028°40'0 0.0
2018-Aug-06 12:00N 44°06' E 028°40'0 0.0
2018-Aug-06 11:30N 44°06' E 028°40'0 0.0
2018-Aug-06 11:00N 44°06' E 028°40'0 0.0
2018-Aug-06 10:30N 44°06' E 028°40'0 0.0
2018-Aug-06 10:00N 44°06' E 028°40'0 0.0
2018-Aug-06 09:30N 44°06' E 028°40'0 0.0
2018-Aug-06 08:57N 44°06' E 028°40'0 0.0
2018-Aug-06 08:30N 44°06' E 028°40'0 0.0
2018-Aug-06 08:00N 44°06' E 028°40'0 0.0
2018-Aug-06 07:30N 44°06' E 028°40'  

Dump ship's entire track history